createdAt,value
2018-07-11T00:00:21.676Z,9.00
2018-07-11T00:01:21.728Z,9.50
2018-07-11T00:02:21.753Z,9.10
2018-07-11T00:03:21.749Z,9.80
2018-07-11T00:04:21.749Z,10.00
2018-07-11T00:05:21.759Z,9.30
2018-07-11T00:06:21.796Z,9.60
2018-07-11T00:07:21.825Z,9.40
2018-07-11T00:08:21.780Z,9.90
2018-07-11T00:09:21.786Z,8.90
2018-07-11T00:10:21.826Z,8.80
2018-07-11T00:11:21.801Z,9.00
2018-07-11T00:12:21.913Z,9.90
2018-07-11T00:13:21.824Z,9.10
2018-07-11T00:14:21.835Z,8.40
2018-07-11T00:15:21.875Z,7.50
2018-07-11T00:16:21.886Z,9.30
2018-07-11T00:17:21.927Z,8.80
2018-07-11T00:18:21.896Z,8.10
2018-07-11T00:19:21.903Z,9.50
2018-07-11T00:20:21.959Z,10.00
2018-07-11T00:21:21.933Z,10.70
2018-07-11T00:22:21.924Z,9.00
2018-07-11T00:23:21.987Z,8.50
2018-07-11T00:24:21.952Z,9.50
2018-07-11T00:25:22.002Z,9.20
2018-07-11T00:26:21.981Z,9.30
2018-07-11T00:27:21.977Z,9.60
2018-07-11T00:28:22.030Z,8.80
2018-07-11T00:29:22.041Z,9.30
2018-07-11T00:30:22.036Z,9.90
2018-07-11T00:31:22.043Z,9.70
2018-07-11T00:32:22.058Z,9.70
2018-07-11T00:33:22.076Z,9.70
2018-07-11T00:34:22.161Z,9.70
2018-07-11T00:35:22.119Z,12.00
2018-07-11T00:36:22.089Z,11.90
2018-07-11T00:37:22.197Z,12.10
2018-07-11T00:38:22.104Z,12.50
2018-07-11T00:39:22.112Z,10.10
2018-07-11T00:40:22.157Z,8.20
2018-07-11T00:41:22.160Z,8.00
2018-07-11T00:42:22.186Z,8.40
2018-07-11T00:43:22.179Z,8.30
2018-07-11T00:44:22.184Z,8.10
2018-07-11T00:45:22.220Z,7.90
2018-07-11T00:46:22.212Z,7.90
2018-07-11T00:47:22.262Z,8.20
2018-07-11T00:48:22.222Z,8.30
2018-07-11T00:49:22.231Z,9.20
2018-07-11T00:50:22.237Z,10.30
2018-07-11T00:51:22.245Z,10.90
2018-07-11T00:52:22.298Z,11.10
2018-07-11T00:53:22.285Z,9.70
2018-07-11T00:54:22.307Z,10.90
2018-07-11T00:55:22.323Z,11.00
2018-07-11T00:56:22.369Z,12.00
2018-07-11T00:57:22.327Z,11.30
2018-07-11T00:58:22.336Z,11.20
2018-07-11T00:59:22.347Z,10.80
2018-07-11T01:00:22.408Z,12.90
2018-07-11T01:01:22.419Z,20.10
2018-07-11T01:02:22.380Z,17.60
2018-07-11T01:03:22.431Z,13.50
2018-07-11T01:04:22.396Z,11.30
2018-07-11T01:05:22.411Z,13.70
2018-07-11T01:06:22.447Z,25.70
2018-07-11T01:07:22.494Z,16.50
2018-07-11T01:08:22.466Z,11.00
2018-07-11T01:09:22.476Z,14.30
2018-07-11T01:10:22.468Z,14.30
2018-07-11T01:11:22.542Z,11.70
2018-07-11T01:12:22.542Z,10.90
2018-07-11T01:13:22.540Z,9.10
2018-07-11T01:14:22.559Z,8.00
2018-07-11T01:15:22.520Z,9.20
2018-07-11T01:16:22.576Z,9.30
2018-07-11T01:17:22.586Z,9.20
2018-07-11T01:18:22.638Z,10.80
2018-07-11T01:19:22.595Z,12.90
2018-07-11T01:20:22.598Z,12.50
2018-07-11T01:21:22.613Z,8.20
2018-07-11T01:22:22.667Z,10.00
2018-07-11T01:23:22.629Z,15.10
2018-07-11T01:24:22.625Z,11.00
2018-07-11T01:25:22.682Z,10.20
2018-07-11T01:26:22.647Z,9.50
2018-07-11T01:27:22.706Z,8.50
2018-07-11T01:28:22.708Z,9.40
2018-07-11T01:29:22.734Z,8.70
2018-07-11T01:30:22.725Z,7.80
2018-07-11T01:31:22.733Z,8.20
2018-07-11T01:32:22.792Z,9.40
2018-07-11T01:33:22.788Z,9.10
2018-07-11T01:34:22.753Z,9.10
2018-07-11T01:35:22.752Z,9.40
2018-07-11T01:36:22.821Z,9.60
2018-07-11T01:37:22.781Z,10.50
2018-07-11T01:38:22.782Z,9.80
2018-07-11T01:39:22.837Z,9.90
2018-07-11T01:40:22.868Z,10.90
2018-07-11T01:41:22.851Z,10.20
2018-07-11T01:42:22.863Z,9.40
2018-07-11T01:43:22.864Z,9.40
2018-07-11T01:44:22.870Z,9.20
2018-07-11T01:45:22.933Z,9.50
2018-07-11T01:46:22.895Z,8.90
2018-07-11T01:47:22.942Z,9.10
2018-07-11T01:48:22.927Z,10.40
2018-07-11T01:49:22.920Z,9.90
2018-07-11T01:50:22.965Z,9.00
2018-07-11T01:51:22.990Z,7.30
2018-07-11T01:52:22.983Z,9.50
2018-07-11T01:53:22.981Z,9.40
2018-07-11T01:54:22.998Z,8.80
2018-07-11T01:55:23.005Z,10.10
2018-07-11T01:56:23.003Z,9.50
2018-07-11T01:57:23.068Z,9.60
2018-07-11T01:58:23.087Z,10.00
2018-07-11T01:59:23.038Z,8.90
2018-07-11T02:00:23.037Z,8.90
2018-07-11T02:01:23.061Z,9.60
2018-07-11T02:02:23.125Z,10.10
2018-07-11T02:03:23.123Z,10.00
2018-07-11T02:04:23.088Z,10.00
2018-07-11T02:05:23.125Z,9.70
2018-07-11T02:06:23.124Z,9.00
2018-07-11T02:07:23.130Z,9.50
2018-07-11T02:08:23.197Z,9.80
2018-07-11T02:09:23.175Z,10.90
2018-07-11T02:10:23.154Z,11.40
2018-07-11T02:11:23.180Z,11.40
2018-07-11T02:12:23.191Z,11.00
2018-07-11T02:13:23.250Z,10.80
2018-07-11T02:14:23.242Z,10.50
2018-07-11T02:15:23.264Z,10.10
2018-07-11T02:16:23.306Z,10.30
2018-07-11T02:17:23.261Z,11.00
2018-07-11T02:18:23.298Z,10.70
2018-07-11T02:19:23.272Z,10.70
2018-07-11T02:20:23.274Z,11.30
2018-07-11T02:21:23.293Z,12.00
2018-07-11T02:22:23.403Z,11.20
2018-07-11T02:23:23.318Z,9.90
2018-07-11T02:24:23.329Z,10.90
2018-07-11T02:25:23.365Z,10.70
2018-07-11T02:26:23.388Z,9.80
2018-07-11T02:27:23.439Z,9.20
2018-07-11T02:28:23.399Z,9.90
2018-07-11T02:29:23.401Z,10.30
2018-07-11T02:30:23.421Z,10.60
2018-07-11T02:31:23.435Z,11.30
2018-07-11T02:32:23.417Z,11.70
2018-07-11T02:33:23.420Z,10.70
2018-07-11T02:34:23.462Z,10.40
2018-07-11T02:35:23.513Z,9.50
2018-07-11T02:36:23.471Z,9.70
2018-07-11T02:37:23.523Z,9.60
2018-07-11T02:38:23.582Z,8.60
2018-07-11T02:39:23.505Z,8.90
2018-07-11T02:40:23.523Z,9.50
2018-07-11T02:41:23.526Z,11.80
2018-07-11T02:42:23.597Z,13.80
2018-07-11T02:43:23.531Z,13.10
2018-07-11T02:44:23.551Z,11.70
2018-07-11T02:45:23.610Z,15.80
2018-07-11T02:46:23.627Z,12.80
2018-07-11T02:47:23.640Z,8.80
2018-07-11T02:48:23.687Z,8.70
2018-07-11T02:49:23.653Z,9.60
2018-07-11T02:50:23.659Z,9.30
2018-07-11T02:51:23.645Z,12.90
2018-07-11T02:52:23.653Z,16.20
2018-07-11T02:53:23.652Z,10.10
2018-07-11T02:54:23.733Z,9.30
2018-07-11T02:55:23.700Z,9.60
2018-07-11T02:56:23.703Z,8.40
2018-07-11T02:57:23.745Z,9.70
2018-07-11T02:58:23.717Z,9.60
2018-07-11T02:59:23.769Z,9.30
2018-07-11T03:00:23.788Z,8.10
2018-07-11T03:01:23.753Z,8.50
2018-07-11T03:02:23.804Z,8.00
2018-07-11T03:03:23.776Z,8.50
2018-07-11T03:04:23.807Z,7.80
2018-07-11T03:05:23.822Z,10.20
2018-07-11T03:06:23.817Z,10.60
2018-07-11T03:07:23.854Z,10.60
2018-07-11T03:08:23.867Z,9.40
2018-07-11T03:09:23.847Z,9.40
2018-07-11T03:10:23.909Z,8.30
2018-07-11T03:11:23.884Z,10.30
2018-07-11T03:12:23.895Z,12.30
2018-07-11T03:13:23.887Z,11.50
2018-07-11T03:14:23.902Z,10.50
2018-07-11T03:15:23.951Z,9.60
2018-07-11T03:16:23.973Z,9.10
2018-07-11T03:17:23.944Z,10.70
2018-07-11T03:18:23.951Z,9.10
2018-07-11T03:19:23.958Z,9.20
2018-07-11T03:20:24.012Z,8.60
2018-07-11T03:21:24.034Z,9.60
2018-07-11T03:22:24.001Z,10.20
2018-07-11T03:23:24.012Z,10.70
2018-07-11T03:24:24.019Z,10.40
2018-07-11T03:25:24.036Z,9.10
2018-07-11T03:26:24.081Z,10.10
2018-07-11T03:27:24.071Z,10.30
2018-07-11T03:28:24.076Z,7.90
2018-07-11T03:29:24.084Z,7.50
2018-07-11T03:30:24.093Z,8.70
2018-07-11T03:31:24.107Z,9.40
2018-07-11T03:32:24.195Z,9.70
2018-07-11T03:33:24.141Z,8.10
2018-07-11T03:34:24.137Z,7.70
2018-07-11T03:35:24.141Z,8.50
2018-07-11T03:36:24.155Z,9.50
2018-07-11T03:37:24.213Z,8.40
2018-07-11T03:38:24.223Z,8.20
2018-07-11T03:39:24.228Z,8.20
2018-07-11T03:40:24.199Z,8.50
2018-07-11T03:41:24.221Z,8.40
2018-07-11T03:42:24.235Z,8.80
2018-07-11T03:43:24.244Z,9.30
2018-07-11T03:44:24.295Z,8.40
2018-07-11T03:45:24.295Z,9.80
2018-07-11T03:46:24.275Z,9.10
2018-07-11T03:47:24.278Z,9.00
2018-07-11T03:48:24.293Z,8.40
2018-07-11T03:49:24.367Z,8.30
2018-07-11T03:50:24.364Z,8.40
2018-07-11T03:51:24.355Z,8.00
2018-07-11T03:52:24.410Z,8.00
2018-07-11T03:53:24.363Z,8.30
2018-07-11T03:54:24.364Z,8.00
2018-07-11T03:55:24.389Z,7.60
2018-07-11T03:56:24.399Z,7.90
2018-07-11T03:57:24.452Z,7.60
2018-07-11T03:58:24.434Z,7.90
2018-07-11T03:59:24.447Z,8.30
2018-07-11T04:00:24.440Z,8.40
2018-07-11T04:01:24.458Z,8.10
2018-07-11T04:02:24.507Z,8.00
2018-07-11T04:03:24.529Z,8.40
2018-07-11T04:04:24.494Z,8.00
2018-07-11T04:05:24.543Z,8.10
2018-07-11T04:06:24.511Z,8.10
2018-07-11T04:07:24.562Z,8.20
2018-07-11T04:08:24.523Z,8.60
2018-07-11T04:09:24.569Z,8.90
2018-07-11T04:10:24.593Z,9.20
2018-07-11T04:11:24.565Z,10.10
2018-07-11T04:12:24.642Z,10.00
2018-07-11T04:13:24.652Z,10.60
2018-07-11T04:14:24.609Z,11.00
2018-07-11T04:15:24.621Z,11.00
2018-07-11T04:16:24.636Z,11.70
2018-07-11T04:17:24.636Z,11.70
2018-07-11T04:18:24.695Z,12.00
2018-07-11T04:19:24.659Z,11.40
2018-07-11T04:20:24.690Z,11.70
2018-07-11T04:21:24.689Z,11.60
2018-07-11T04:22:24.697Z,11.50
2018-07-11T04:23:24.769Z,12.20
2018-07-11T04:24:24.733Z,11.60
2018-07-11T04:25:24.756Z,11.10
2018-07-11T04:26:24.794Z,11.20
2018-07-11T04:27:24.754Z,12.00
2018-07-11T04:28:24.768Z,11.40
2018-07-11T04:29:24.771Z,11.30
2018-07-11T04:30:24.802Z,12.40
2018-07-11T04:31:24.860Z,11.80
2018-07-11T04:32:24.837Z,12.20
2018-07-11T04:33:24.857Z,12.30
2018-07-11T04:34:24.910Z,12.80
2018-07-11T04:35:24.857Z,12.70
2018-07-11T04:36:24.860Z,12.90
2018-07-11T04:37:24.924Z,12.90
2018-07-11T04:38:24.876Z,13.00
2018-07-11T04:39:24.904Z,12.40
2018-07-11T04:40:24.923Z,11.90
2018-07-11T04:41:24.934Z,11.30
2018-07-11T04:42:24.972Z,11.90
2018-07-11T04:43:25.072Z,12.20
2018-07-11T04:44:24.945Z,12.30
2018-07-11T04:45:24.962Z,14.70
2018-07-11T04:46:24.970Z,14.70
2018-07-11T04:47:24.994Z,13.60
2018-07-11T04:48:25.027Z,13.30
2018-07-11T04:49:25.032Z,12.60
2018-07-11T04:50:25.017Z,11.40
2018-07-11T04:51:25.031Z,11.60
2018-07-11T04:52:25.223Z,12.10
2018-07-11T04:53:25.117Z,12.00
2018-07-11T04:54:25.071Z,12.20
2018-07-11T04:55:25.084Z,12.30
2018-07-11T04:56:25.105Z,11.50
2018-07-11T04:57:25.108Z,12.00
2018-07-11T04:58:25.161Z,12.20
2018-07-11T04:59:25.177Z,11.90
2018-07-11T05:00:25.141Z,12.40
2018-07-11T05:01:25.274Z,12.00
2018-07-11T05:02:25.173Z,11.10
2018-07-11T05:03:25.168Z,11.00
2018-07-11T05:04:25.216Z,10.70
2018-07-11T05:05:25.196Z,12.30
2018-07-11T05:06:25.205Z,12.00
2018-07-11T05:07:25.228Z,12.40
2018-07-11T05:08:25.274Z,12.50
2018-07-11T05:09:25.294Z,12.30
2018-07-11T05:10:25.300Z,12.30
2018-07-11T05:11:25.267Z,11.30
2018-07-11T05:12:25.305Z,11.30
2018-07-11T05:13:25.311Z,11.10
2018-07-11T05:14:25.327Z,12.70
2018-07-11T05:15:25.380Z,12.60
2018-07-11T05:16:25.339Z,11.60
2018-07-11T05:17:25.386Z,11.00
2018-07-11T05:18:25.444Z,12.10
2018-07-11T05:19:25.371Z,13.00
2018-07-11T05:20:25.428Z,12.70
2018-07-11T05:21:25.407Z,11.10
2018-07-11T05:22:25.458Z,11.20
2018-07-11T05:23:25.438Z,11.10
2018-07-11T05:24:25.447Z,15.30
2018-07-11T05:25:25.496Z,14.40
2018-07-11T05:26:25.606Z,11.30
2018-07-11T05:27:25.461Z,10.40
2018-07-11T05:28:25.472Z,10.40
2018-07-11T05:29:25.486Z,10.20
2018-07-11T05:30:25.491Z,10.30
2018-07-11T05:31:25.511Z,10.70
2018-07-11T05:32:25.548Z,10.40
2018-07-11T05:33:25.554Z,9.90
2018-07-11T05:34:25.551Z,10.00
2018-07-11T05:35:25.560Z,10.00
2018-07-11T05:36:25.613Z,10.00
2018-07-11T05:37:25.645Z,10.00
2018-07-11T05:38:25.609Z,12.10
2018-07-11T05:39:25.618Z,12.50
2018-07-11T05:40:25.642Z,13.90
2018-07-11T05:41:25.633Z,12.10
2018-07-11T05:42:25.722Z,10.00
2018-07-11T05:43:25.669Z,9.80
2018-07-11T05:44:25.671Z,10.70
2018-07-11T05:45:25.690Z,11.30
2018-07-11T05:46:25.696Z,11.30
2018-07-11T05:47:25.745Z,12.00
2018-07-11T05:48:25.725Z,11.70
2018-07-11T05:49:25.767Z,12.50
2018-07-11T05:50:25.785Z,12.20
2018-07-11T05:51:25.892Z,12.10
2018-07-11T05:52:25.778Z,11.70
2018-07-11T05:53:25.812Z,12.70
2018-07-11T05:54:25.795Z,12.60
2018-07-11T05:55:25.859Z,14.50
2018-07-11T05:56:25.821Z,12.10
2018-07-11T05:57:25.870Z,11.50
2018-07-11T05:58:25.871Z,10.40
2018-07-11T05:59:25.877Z,9.50
2018-07-11T06:00:26.060Z,9.20
2018-07-11T06:01:25.914Z,9.60
2018-07-11T06:02:25.958Z,9.20
2018-07-11T06:03:25.916Z,8.80
2018-07-11T06:04:25.960Z,9.20
2018-07-11T06:05:25.938Z,9.20
2018-07-11T06:06:25.948Z,9.10
2018-07-11T06:07:26.009Z,9.20
2018-07-11T06:08:25.962Z,10.00
2018-07-11T06:09:26.002Z,9.50
2018-07-11T06:10:26.007Z,9.50
2018-07-11T06:11:26.006Z,9.40
2018-07-11T06:12:26.071Z,9.60
2018-07-11T06:13:26.069Z,10.30
2018-07-11T06:14:26.039Z,9.40
2018-07-11T06:15:26.090Z,9.50
2018-07-11T06:16:26.659Z,8.80
2018-07-11T06:17:26.141Z,8.60
2018-07-11T06:18:26.126Z,8.40
2018-07-11T06:19:26.123Z,8.90
2018-07-11T06:20:26.123Z,9.30
2018-07-11T06:21:26.152Z,8.70
2018-07-11T06:22:27.531Z,8.60
2018-07-11T06:23:26.185Z,8.20
2018-07-11T06:24:26.171Z,8.80
2018-07-11T06:25:26.181Z,8.90
2018-07-11T06:26:26.421Z,9.10
2018-07-11T06:27:26.197Z,9.00
2018-07-11T06:28:26.296Z,9.00
2018-07-11T06:29:26.304Z,9.00
2018-07-11T06:30:26.252Z,8.80
2018-07-11T06:31:26.256Z,8.80
2018-07-11T06:32:26.326Z,8.70
2018-07-11T06:33:26.325Z,9.30
2018-07-11T06:34:26.311Z,9.80
2018-07-11T06:35:26.341Z,8.70
2018-07-11T06:36:26.333Z,8.80
2018-07-11T06:37:26.451Z,9.10
2018-07-11T06:38:26.351Z,8.90
2018-07-11T06:39:26.443Z,9.20
2018-07-11T06:40:26.365Z,8.60
2018-07-11T06:41:26.412Z,9.20
2018-07-11T06:42:26.399Z,9.60
2018-07-11T06:43:26.455Z,9.40
2018-07-11T06:44:26.464Z,9.40
2018-07-11T06:45:26.451Z,9.70
2018-07-11T06:46:26.481Z,9.60
2018-07-11T06:47:26.465Z,10.00
2018-07-11T06:48:26.589Z,11.30
2018-07-11T06:49:26.486Z,13.20
2018-07-11T06:50:26.496Z,10.50
2018-07-11T06:51:26.519Z,9.40
2018-07-11T06:52:26.550Z,11.20
2018-07-11T06:53:26.533Z,8.60
2018-07-11T06:54:26.719Z,8.30
2018-07-11T06:55:26.560Z,7.60
2018-07-11T06:56:26.588Z,7.40
2018-07-11T06:57:26.688Z,8.10
2018-07-11T06:58:26.604Z,8.40
2018-07-11T06:59:26.663Z,7.80
2018-07-11T07:00:26.623Z,7.30
2018-07-11T07:01:26.715Z,7.80
2018-07-11T07:02:26.652Z,7.10
2018-07-11T07:03:26.725Z,7.80
2018-07-11T07:04:26.747Z,7.10
2018-07-11T07:05:26.713Z,7.30
2018-07-11T07:06:26.702Z,7.30
2018-07-11T07:07:26.713Z,8.20
2018-07-11T07:08:26.725Z,8.80
2018-07-11T07:09:26.731Z,9.60
2018-07-11T07:10:26.807Z,8.70
2018-07-11T07:11:26.819Z,8.60
2018-07-11T07:12:26.794Z,8.50
2018-07-11T07:13:26.800Z,8.90
2018-07-11T07:14:26.840Z,6.90
2018-07-11T07:15:26.831Z,5.90
2018-07-11T07:16:26.899Z,5.60
2018-07-11T07:17:26.881Z,5.70
2018-07-11T07:18:26.848Z,6.30
2018-07-11T07:19:26.873Z,6.30
2018-07-11T07:20:27.010Z,6.90
2018-07-11T07:21:26.904Z,7.20
2018-07-11T07:22:26.998Z,6.70
2018-07-11T07:23:26.984Z,7.10
2018-07-11T07:24:26.925Z,7.00
2018-07-11T07:25:26.954Z,7.40
2018-07-11T07:26:26.957Z,6.60
2018-07-11T07:27:27.019Z,6.10
2018-07-11T07:28:27.022Z,6.50
2018-07-11T07:29:27.042Z,6.70
2018-07-11T07:30:27.064Z,6.90
2018-07-11T07:31:27.026Z,7.10
2018-07-11T07:32:27.046Z,6.80
2018-07-11T07:33:27.074Z,6.30
2018-07-11T07:34:27.058Z,5.90
2018-07-11T07:35:27.114Z,5.80
2018-07-11T07:36:27.107Z,5.10
2018-07-11T07:37:27.123Z,5.80
2018-07-11T07:38:27.126Z,6.20
2018-07-11T07:39:27.132Z,6.60
2018-07-11T07:40:27.205Z,6.40
2018-07-11T07:41:27.149Z,6.80
2018-07-11T07:42:27.165Z,6.40
2018-07-11T07:43:27.196Z,6.50
2018-07-11T07:44:27.211Z,6.10
2018-07-11T07:45:27.233Z,6.50
2018-07-11T07:46:27.232Z,6.10
2018-07-11T07:47:27.262Z,6.70
2018-07-11T07:48:27.318Z,6.80
2018-07-11T07:49:27.259Z,7.40
2018-07-11T07:50:27.265Z,6.80
2018-07-11T07:51:27.296Z,7.00
2018-07-11T07:52:27.409Z,6.40
2018-07-11T07:53:27.369Z,6.50
2018-07-11T07:54:27.345Z,6.50
2018-07-11T07:55:27.340Z,6.30
2018-07-11T07:56:27.346Z,6.00
2018-07-11T07:57:27.369Z,6.00
2018-07-11T07:58:27.441Z,6.10
2018-07-11T07:59:27.437Z,6.20
2018-07-11T08:00:27.475Z,6.10
2018-07-11T08:01:27.444Z,6.20
2018-07-11T08:02:27.452Z,6.50
2018-07-11T08:03:27.510Z,6.40
2018-07-11T08:04:27.460Z,5.60
2018-07-11T08:05:27.467Z,6.00
2018-07-11T08:06:27.527Z,5.80
2018-07-11T08:07:27.488Z,5.60
2018-07-11T08:08:27.534Z,5.70
2018-07-11T08:09:27.520Z,6.10
2018-07-11T08:10:27.551Z,6.10
2018-07-11T08:11:27.617Z,6.20
2018-07-11T08:12:27.558Z,6.10
2018-07-11T08:13:27.593Z,5.60
2018-07-11T08:14:27.642Z,5.60
2018-07-11T08:15:27.688Z,5.10
2018-07-11T08:16:27.659Z,5.60
2018-07-11T08:17:27.658Z,5.40
2018-07-11T08:18:27.650Z,4.80
2018-07-11T08:19:27.855Z,4.40
2018-07-11T08:20:27.676Z,4.30
2018-07-11T08:21:27.708Z,4.50
2018-07-11T08:22:27.744Z,4.20
2018-07-11T08:23:27.734Z,4.40
2018-07-11T08:24:27.739Z,4.50
2018-07-11T08:25:27.747Z,4.60
2018-07-11T08:26:27.785Z,4.60
2018-07-11T08:27:27.855Z,4.60
2018-07-11T08:28:27.794Z,4.60
2018-07-11T08:29:27.799Z,4.30
2018-07-11T08:30:27.803Z,4.50
2018-07-11T08:31:27.812Z,3.90
2018-07-11T08:32:27.855Z,4.00
2018-07-11T08:33:27.867Z,3.70
2018-07-11T08:34:27.861Z,4.20
2018-07-11T08:35:27.863Z,4.40
2018-07-11T08:36:27.887Z,4.60
2018-07-11T08:37:27.956Z,3.80
2018-07-11T08:38:27.900Z,3.90
2018-07-11T08:39:27.911Z,4.00
2018-07-11T08:40:27.943Z,4.20
2018-07-11T08:41:27.979Z,4.00
2018-07-11T08:42:28.041Z,4.10
2018-07-11T08:43:28.031Z,4.10
2018-07-11T08:44:27.986Z,4.70
2018-07-11T08:45:28.040Z,4.80
2018-07-11T08:46:28.041Z,4.20
2018-07-11T08:47:28.030Z,4.50
2018-07-11T08:48:28.060Z,4.00
2018-07-11T08:49:28.061Z,3.70
2018-07-11T08:50:28.187Z,4.00
2018-07-11T08:51:28.124Z,4.10
2018-07-11T08:52:28.386Z,4.30
2018-07-11T08:53:28.114Z,4.20
2018-07-11T08:54:28.295Z,4.30
2018-07-11T08:55:28.117Z,4.30
2018-07-11T08:56:28.349Z,3.60
2018-07-11T08:57:28.235Z,4.00
2018-07-11T08:58:28.271Z,3.50
2018-07-11T08:59:28.214Z,3.80
2018-07-11T09:00:28.268Z,3.70
2018-07-11T09:01:28.202Z,3.30
2018-07-11T09:02:28.283Z,3.50
2018-07-11T09:03:28.260Z,4.00
2018-07-11T09:04:28.514Z,3.30
2018-07-11T09:05:28.290Z,3.20
2018-07-11T09:06:28.277Z,3.10
2018-07-11T09:07:28.284Z,3.60
2018-07-11T09:08:28.421Z,3.20
2018-07-11T09:09:28.331Z,3.80
2018-07-11T09:10:28.555Z,4.30
2018-07-11T09:11:28.357Z,4.40
2018-07-11T09:12:28.390Z,5.10
2018-07-11T09:13:28.357Z,3.40
2018-07-11T09:14:28.431Z,3.90
2018-07-11T09:15:28.386Z,4.10
2018-07-11T09:16:28.416Z,4.50
2018-07-11T09:17:28.483Z,4.80
2018-07-11T09:18:28.484Z,3.60
2018-07-11T09:19:28.460Z,3.40
2018-07-11T09:20:28.579Z,2.80
2018-07-11T09:21:28.485Z,2.70
2018-07-11T09:22:28.616Z,2.60
2018-07-11T09:23:28.548Z,2.20
2018-07-11T09:24:28.532Z,2.30
2018-07-11T09:25:28.537Z,2.80
2018-07-11T09:26:28.539Z,2.50
2018-07-11T09:27:28.581Z,2.60
2018-07-11T09:28:28.594Z,2.60
2018-07-11T09:29:28.571Z,2.50
2018-07-11T09:30:28.595Z,2.60
2018-07-11T09:31:28.609Z,2.90
2018-07-11T09:32:28.612Z,2.70
2018-07-11T09:33:28.640Z,2.70
2018-07-11T09:34:28.809Z,2.90
2018-07-11T09:35:28.680Z,3.00
2018-07-11T09:36:28.664Z,3.90
2018-07-11T09:37:28.732Z,3.60
2018-07-11T09:38:28.696Z,3.10
2018-07-11T09:39:28.747Z,3.20
2018-07-11T09:40:28.785Z,3.00
2018-07-11T09:41:28.798Z,4.40
2018-07-11T09:42:28.805Z,3.50
2018-07-11T09:43:28.778Z,3.50
2018-07-11T09:44:28.793Z,3.50
2018-07-11T09:45:28.891Z,3.00
2018-07-11T09:46:28.841Z,2.90
2018-07-11T09:47:28.842Z,5.00
2018-07-11T09:48:29.090Z,3.90
2018-07-11T09:49:28.861Z,3.70
2018-07-11T09:50:28.901Z,3.70
2018-07-11T09:51:28.884Z,3.40
2018-07-11T09:52:28.881Z,5.20
2018-07-11T09:53:28.942Z,3.50
2018-07-11T09:54:28.909Z,2.70
2018-07-11T09:55:28.951Z,2.50
2018-07-11T09:56:28.966Z,2.30
2018-07-11T09:57:28.951Z,2.50
2018-07-11T09:58:29.040Z,2.20
2018-07-11T09:59:29.032Z,2.00
2018-07-11T10:00:28.987Z,1.90
2018-07-11T10:01:29.014Z,2.20
2018-07-11T10:02:29.157Z,2.40
2018-07-11T10:03:29.040Z,2.30
2018-07-11T10:04:29.106Z,2.70
2018-07-11T10:05:29.236Z,2.60
2018-07-11T10:06:29.075Z,3.00
2018-07-11T10:07:29.109Z,2.60
2018-07-11T10:08:29.137Z,2.90
2018-07-11T10:09:29.498Z,2.30
2018-07-11T10:10:29.197Z,2.20
2018-07-11T10:11:29.218Z,2.10
2018-07-11T10:12:29.188Z,1.90
2018-07-11T10:13:29.172Z,2.00
2018-07-11T10:14:29.206Z,2.00
2018-07-11T10:15:29.230Z,2.10
2018-07-11T10:16:29.287Z,2.10
2018-07-11T10:17:29.240Z,2.10
2018-07-11T10:18:29.462Z,2.00
2018-07-11T10:19:29.285Z,1.90
2018-07-11T10:20:29.317Z,1.80
2018-07-11T10:21:29.390Z,2.00
2018-07-11T10:22:29.325Z,2.00
2018-07-11T10:23:29.322Z,2.20
2018-07-11T10:24:29.322Z,2.30
2018-07-11T10:25:29.384Z,2.30
2018-07-11T10:26:29.356Z,1.80
2018-07-11T10:27:29.384Z,2.40
2018-07-11T10:28:29.379Z,2.30
2018-07-11T10:29:29.476Z,3.70
2018-07-11T10:30:29.593Z,2.40
2018-07-11T10:31:29.425Z,3.30
2018-07-11T10:32:29.442Z,3.20
2018-07-11T10:33:29.502Z,3.20
2018-07-11T10:34:29.529Z,4.90
2018-07-11T10:35:29.510Z,2.80
2018-07-11T10:36:29.510Z,3.10
2018-07-11T10:37:29.526Z,2.60
2018-07-11T10:38:29.544Z,3.20
2018-07-11T10:39:29.567Z,2.80
2018-07-11T10:40:29.552Z,2.70
2018-07-11T10:41:29.593Z,2.40
2018-07-11T10:42:29.592Z,2.70
2018-07-11T10:43:29.595Z,2.80
2018-07-11T10:44:29.604Z,2.40
2018-07-11T10:45:29.680Z,2.90
2018-07-11T10:46:29.641Z,3.10
2018-07-11T10:47:29.705Z,2.80
2018-07-11T10:48:29.658Z,2.70
2018-07-11T10:49:29.682Z,2.20
2018-07-11T10:50:29.690Z,2.80
2018-07-11T10:51:29.723Z,2.30
2018-07-11T10:52:29.772Z,2.50
2018-07-11T10:53:29.738Z,2.60
2018-07-11T10:54:29.760Z,3.60
2018-07-11T10:55:29.784Z,4.00
2018-07-11T10:56:29.778Z,3.20
2018-07-11T10:57:29.847Z,2.70
2018-07-11T10:58:29.816Z,2.50
2018-07-11T10:59:29.825Z,2.50
2018-07-11T11:00:36.658Z,2.80
2018-07-11T11:01:29.929Z,2.80
2018-07-11T11:02:29.896Z,3.30
2018-07-11T11:03:29.930Z,3.00
2018-07-11T11:04:29.895Z,2.40
2018-07-11T11:05:29.915Z,2.50
2018-07-11T11:06:29.931Z,2.70
2018-07-11T11:07:29.990Z,3.20
2018-07-11T11:08:30.001Z,5.30
2018-07-11T11:09:29.970Z,6.10
2018-07-11T11:10:29.984Z,5.50
2018-07-11T11:11:30.017Z,3.50
2018-07-11T11:12:30.002Z,3.20
2018-07-11T11:13:30.035Z,2.80
2018-07-11T11:14:30.096Z,3.00
2018-07-11T11:15:30.062Z,2.70
2018-07-11T11:16:30.050Z,2.60
2018-07-11T11:17:30.071Z,3.20
2018-07-11T11:18:30.130Z,2.80
2018-07-11T11:19:30.128Z,2.60
2018-07-11T11:20:30.120Z,2.80
2018-07-11T11:21:30.130Z,3.10
2018-07-11T11:22:30.207Z,3.10
2018-07-11T11:23:30.152Z,2.70
2018-07-11T11:24:30.195Z,2.90
2018-07-11T11:25:30.182Z,3.40
2018-07-11T11:26:30.208Z,3.40
2018-07-11T11:27:30.266Z,2.50
2018-07-11T11:28:30.273Z,2.50
2018-07-11T11:29:30.243Z,2.40
2018-07-11T11:30:30.257Z,2.40
2018-07-11T11:31:30.267Z,2.70
2018-07-11T11:32:30.284Z,2.60
2018-07-11T11:33:30.366Z,2.70
2018-07-11T11:34:30.316Z,3.40
2018-07-11T11:35:30.323Z,2.60
2018-07-11T11:36:30.338Z,2.60
2018-07-11T11:37:30.374Z,2.50
2018-07-11T11:38:30.408Z,2.60
2018-07-11T11:39:30.459Z,2.80
2018-07-11T11:40:30.413Z,2.80
2018-07-11T11:41:30.445Z,2.80
2018-07-11T11:42:30.846Z,2.90
2018-07-11T11:43:30.448Z,3.00
2018-07-11T11:44:30.484Z,2.80
2018-07-11T11:45:30.637Z,2.50
2018-07-11T11:46:30.488Z,2.90
2018-07-11T11:47:30.526Z,2.60
2018-07-11T11:48:30.540Z,2.50
2018-07-11T11:49:30.538Z,2.90
2018-07-11T11:50:30.548Z,3.10
2018-07-11T11:51:30.601Z,3.10
2018-07-11T11:52:30.711Z,3.30
2018-07-11T11:53:30.610Z,3.80
2018-07-11T11:54:30.618Z,4.10
2018-07-11T11:55:30.613Z,4.00
2018-07-11T11:56:30.663Z,3.30
2018-07-11T11:57:30.642Z,3.90
2018-07-11T11:58:30.666Z,3.40
2018-07-11T11:59:30.692Z,2.90
2018-07-11T12:00:30.697Z,3.10
2018-07-11T12:01:30.732Z,3.20
2018-07-11T12:02:30.900Z,3.20
2018-07-11T12:03:30.729Z,3.40
2018-07-11T12:04:30.803Z,3.80
2018-07-11T12:05:30.769Z,2.70
2018-07-11T12:06:31.255Z,2.80
2018-07-11T12:07:30.797Z,2.50
2018-07-11T12:08:30.815Z,2.70
2018-07-11T12:09:30.851Z,2.50
2018-07-11T12:10:30.876Z,2.90
2018-07-11T12:11:30.843Z,2.70
2018-07-11T12:12:30.850Z,2.60
2018-07-11T12:13:31.052Z,2.80
2018-07-11T12:14:30.889Z,2.90
2018-07-11T12:15:31.035Z,3.30
2018-07-11T12:16:30.938Z,3.40
2018-07-11T12:17:30.984Z,3.10
2018-07-11T12:18:30.959Z,3.10
2018-07-11T12:19:30.979Z,3.10
2018-07-11T12:20:31.006Z,3.00
2018-07-11T12:21:31.042Z,3.10
2018-07-11T12:22:31.052Z,3.20
2018-07-11T12:23:31.085Z,3.00
2018-07-11T12:24:31.078Z,3.00
2018-07-11T12:25:31.316Z,3.30
2018-07-11T12:26:31.120Z,3.20
2018-07-11T12:27:31.094Z,4.60
2018-07-11T12:28:31.136Z,3.40
2018-07-11T12:29:31.123Z,3.80
2018-07-11T12:30:31.134Z,4.50
2018-07-11T12:31:31.192Z,3.70
2018-07-11T12:32:31.160Z,3.50
2018-07-11T12:33:31.183Z,4.00
2018-07-11T12:34:31.212Z,3.30
2018-07-11T12:35:31.218Z,3.50
2018-07-11T12:36:31.231Z,4.90
2018-07-11T12:37:31.264Z,10.40
2018-07-11T12:38:31.237Z,6.40
2018-07-11T12:39:31.264Z,3.50
2018-07-11T12:40:31.284Z,4.50
2018-07-11T12:41:31.360Z,4.20
2018-07-11T12:42:31.346Z,4.20
2018-07-11T12:43:31.335Z,4.80
2018-07-11T12:44:31.370Z,4.60
2018-07-11T12:45:31.357Z,2.80
2018-07-11T12:46:31.361Z,3.10
2018-07-11T12:47:31.408Z,3.00
2018-07-11T12:48:31.399Z,2.90
2018-07-11T12:49:31.447Z,2.90
2018-07-11T12:50:31.437Z,3.10
2018-07-11T12:51:31.500Z,2.80
2018-07-11T12:52:31.444Z,4.10
2018-07-11T12:53:31.465Z,4.60
2018-07-11T12:54:31.544Z,3.80
2018-07-11T12:55:31.484Z,3.40
2018-07-11T12:56:31.516Z,4.60
2018-07-11T12:57:31.513Z,4.70
2018-07-11T12:58:31.552Z,3.40
2018-07-11T12:59:31.617Z,2.70
2018-07-11T13:00:31.619Z,2.60
2018-07-11T13:01:31.586Z,2.80
2018-07-11T13:02:31.591Z,2.50
2018-07-11T13:03:31.613Z,2.70
2018-07-11T13:04:31.690Z,2.70
2018-07-11T13:05:31.673Z,3.00
2018-07-11T13:06:31.660Z,3.00
2018-07-11T13:07:31.694Z,3.00
2018-07-11T13:08:31.699Z,2.80
2018-07-11T13:09:31.693Z,2.50
2018-07-11T13:10:32.266Z,2.90
2018-07-11T13:11:31.741Z,3.10